<?xml version="1.0" encoding="UTF-8" standalone="no" ?>
<gpx xmlns="http://www.topografix.com/GPX/1/1" xmlns:xsi="http://www.w3.org/2001/XMLSchema-instance" xsi:schemaLocation="http://www.topografix.com/GPX/1/1 http://www.topografix.com/GPX/1/1/gpx.xsd" version="1.1" creator="VisuGPX - https://www.visugpx.com">
  <metadata>
    <name>Saint Pierre de Boeuf 1</name>
    <desc><![CDATA[
]]></desc>
  </metadata>
  <wpt lat="45.38331" lon="4.74793">
    <ele>173.7</ele>
    <name><![CDATA[Parking Rue du Bonnardaux]]></name>
  </wpt>
  <wpt lat="45.38296" lon="4.74602">
    <ele>187</ele>
    <name><![CDATA[Chemin à droite]]></name>
  </wpt>
  <wpt lat="45.38166" lon="4.73841">
    <ele>247.6</ele>
    <name><![CDATA[Panneau indicateur de randonnée]]></name>
  </wpt>
  <wpt lat="45.38257" lon="4.73338">
    <ele>251.3</ele>
    <name><![CDATA[Bifurcation à ne pas rater]]></name>
  </wpt>
  <wpt lat="45.37721" lon="4.7377">
    <ele>336.8</ele>
    <name><![CDATA[Chemin tranversal]]></name>
    <type><![CDATA[ à droite]]></type>
  </wpt>
  <wpt lat="45.3739" lon="4.73019">
    <ele>362</ele>
    <name><![CDATA[Panneau indicateur de randonnée]]></name>
  </wpt>
  <wpt lat="45.36639" lon="4.71694">
    <ele>400.1</ele>
    <name><![CDATA[Verger]]></name>
    <type><![CDATA[ à droite]]></type>
  </wpt>
  <wpt lat="45.3753" lon="4.71393">
    <ele>302.5</ele>
    <name><![CDATA[La Brunerie Basse]]></name>
    <type><![CDATA[ à gauche]]></type>
  </wpt>
  <wpt lat="45.37334" lon="4.7094">
    <ele>278.5</ele>
    <name><![CDATA[Intersection. Fond de la combe]]></name>
  </wpt>
  <wpt lat="45.35538" lon="4.69249">
    <ele>389.3</ele>
    <name><![CDATA[Croix]]></name>
  </wpt>
  <wpt lat="45.35362" lon="4.708">
    <ele>367.7</ele>
    <name><![CDATA[Fourche]]></name>
  </wpt>
  <wpt lat="45.35788" lon="4.71724">
    <ele>360.8</ele>
    <name><![CDATA[Hameau de Pessonneau]]></name>
  </wpt>
  <wpt lat="45.36332" lon="4.73721">
    <ele>330.3</ele>
    <name><![CDATA[Hameau de Lacour]]></name>
  </wpt>
  <wpt lat="45.3666" lon="4.73904">
    <ele>334.2</ele>
    <name><![CDATA[Chapelle]]></name>
  </wpt>
  <wpt lat="45.37342" lon="4.7377">
    <ele>328.1</ele>
    <name><![CDATA[Abri bus en bois]]></name>
  </wpt>
  <trk>
    <name><![CDATA[Saint Pierre de Boeuf 1_1]]></name>
    <trkseg>
      <trkpt lat="45.38347" lon="4.74643">
        <ele>182</ele>
        <time>2020-01-31T11:11:31 01:00</time>
      </trkpt>
      <trkpt lat="45.38326" lon="4.74626">
        <ele>185</ele>
        <time>2020-01-31T11:11:36 01:00</time>
      </trkpt>
      <trkpt lat="45.38306" lon="4.74612">
        <ele>187</ele>
        <time>2020-01-31T11:11:41 01:00</time>
      </trkpt>
      <trkpt lat="45.38296" lon="4.74602">
        <ele>188</ele>
        <time>2020-01-31T11:11:46 01:00</time>
      </trkpt>
      <trkpt lat="45.38304" lon="4.74572">
        <ele>192</ele>
        <time>2020-01-31T11:11:51 01:00</time>
      </trkpt>
      <trkpt lat="45.383" lon="4.74546">
        <ele>194</ele>
        <time>2020-01-31T11:11:56 01:00</time>
      </trkpt>
      <trkpt lat="45.38297" lon="4.74519">
        <ele>197</ele>
        <time>2020-01-31T11:12:01 01:00</time>
      </trkpt>
      <trkpt lat="45.38299" lon="4.74506">
        <ele>199</ele>
        <time>2020-01-31T11:12:06 01:00</time>
      </trkpt>
      <trkpt lat="45.38378" lon="4.74436">
        <ele>211</ele>
        <time>2020-01-31T11:12:11 01:00</time>
      </trkpt>
      <trkpt lat="45.38386" lon="4.74418">
        <ele>214</ele>
        <time>2020-01-31T11:12:16 01:00</time>
      </trkpt>
      <trkpt lat="45.38384" lon="4.74362">
        <ele>218</ele>
        <time>2020-01-31T11:12:21 01:00</time>
      </trkpt>
      <trkpt lat="45.38384" lon="4.74316">
        <ele>219</ele>
        <time>2020-01-31T11:12:26 01:00</time>
      </trkpt>
      <trkpt lat="45.38383" lon="4.74273">
        <ele>215</ele>
        <time>2020-01-31T11:12:31 01:00</time>
      </trkpt>
      <trkpt lat="45.38379" lon="4.742">
        <ele>211</ele>
        <time>2020-01-31T11:12:36 01:00</time>
      </trkpt>
      <trkpt lat="45.38371" lon="4.74145">
        <ele>210</ele>
        <time>2020-01-31T11:12:41 01:00</time>
      </trkpt>
      <trkpt lat="45.38357" lon="4.74096">
        <ele>214</ele>
        <time>2020-01-31T11:12:46 01:00</time>
      </trkpt>
      <trkpt lat="45.38341" lon="4.74068">
        <ele>219</ele>
        <time>2020-01-31T11:12:51 01:00</time>
      </trkpt>
      <trkpt lat="45.38319" lon="4.74059">
        <ele>222</ele>
        <time>2020-01-31T11:12:56 01:00</time>
      </trkpt>
      <trkpt lat="45.38303" lon="4.74053">
        <ele>223</ele>
        <time>2020-01-31T11:13:01 01:00</time>
      </trkpt>
      <trkpt lat="45.38292" lon="4.7404">
        <ele>225</ele>
        <time>2020-01-31T11:13:06 01:00</time>
      </trkpt>
      <trkpt lat="45.38278" lon="4.74009">
        <ele>229</ele>
        <time>2020-01-31T11:13:11 01:00</time>
      </trkpt>
      <trkpt lat="45.38268" lon="4.73984">
        <ele>230</ele>
        <time>2020-01-31T11:13:16 01:00</time>
      </trkpt>
      <trkpt lat="45.38253" lon="4.73951">
        <ele>229</ele>
        <time>2020-01-31T11:13:21 01:00</time>
      </trkpt>
      <trkpt lat="45.38228" lon="4.73928">
        <ele>230</ele>
        <time>2020-01-31T11:13:26 01:00</time>
      </trkpt>
      <trkpt lat="45.38204" lon="4.73922">
        <ele>233</ele>
        <time>2020-01-31T11:13:31 01:00</time>
      </trkpt>
      <trkpt lat="45.38185" lon="4.73904">
        <ele>237</ele>
        <time>2020-01-31T11:13:36 01:00</time>
      </trkpt>
      <trkpt lat="45.38171" lon="4.73891">
        <ele>240</ele>
        <time>2020-01-31T11:13:41 01:00</time>
      </trkpt>
      <trkpt lat="45.38166" lon="4.73841">
        <ele>246</ele>
        <time>2020-01-31T11:13:46 01:00</time>
      </trkpt>
      <trkpt lat="45.38163" lon="4.73808">
        <ele>252</ele>
        <time>2020-01-31T11:13:51 01:00</time>
      </trkpt>
      <trkpt lat="45.38164" lon="4.73794">
        <ele>254</ele>
        <time>2020-01-31T11:13:56 01:00</time>
      </trkpt>
      <trkpt lat="45.38175" lon="4.73783">
        <ele>253</ele>
        <time>2020-01-31T11:14:01 01:00</time>
      </trkpt>
      <trkpt lat="45.38204" lon="4.73774">
        <ele>246</ele>
        <time>2020-01-31T11:14:06 01:00</time>
      </trkpt>
      <trkpt lat="45.38212" lon="4.73769">
        <ele>245</ele>
        <time>2020-01-31T11:14:11 01:00</time>
      </trkpt>
      <trkpt lat="45.38223" lon="4.7375">
        <ele>244</ele>
        <time>2020-01-31T11:14:16 01:00</time>
      </trkpt>
      <trkpt lat="45.38227" lon="4.73723">
        <ele>246</ele>
        <time>2020-01-31T11:14:21 01:00</time>
      </trkpt>
      <trkpt lat="45.38227" lon="4.73694">
        <ele>248</ele>
        <time>2020-01-31T11:14:26 01:00</time>
      </trkpt>
      <trkpt lat="45.38224" lon="4.73659">
        <ele>252</ele>
        <time>2020-01-31T11:14:31 01:00</time>
      </trkpt>
      <trkpt lat="45.38227" lon="4.73645">
        <ele>252</ele>
        <time>2020-01-31T11:14:36 01:00</time>
      </trkpt>
      <trkpt lat="45.38236" lon="4.7361">
        <ele>251</ele>
        <time>2020-01-31T11:14:41 01:00</time>
      </trkpt>
      <trkpt lat="45.38238" lon="4.73585">
        <ele>251</ele>
        <time>2020-01-31T11:14:46 01:00</time>
      </trkpt>
      <trkpt lat="45.38228" lon="4.73551">
        <ele>258</ele>
        <time>2020-01-31T11:14:51 01:00</time>
      </trkpt>
      <trkpt lat="45.38228" lon="4.73541">
        <ele>259</ele>
        <time>2020-01-31T11:14:56 01:00</time>
      </trkpt>
      <trkpt lat="45.38235" lon="4.73524">
        <ele>257</ele>
        <time>2020-01-31T11:15:01 01:00</time>
      </trkpt>
      <trkpt lat="45.38239" lon="4.73507">
        <ele>256</ele>
        <time>2020-01-31T11:15:06 01:00</time>
      </trkpt>
      <trkpt lat="45.38236" lon="4.73473">
        <ele>261</ele>
        <time>2020-01-31T11:15:11 01:00</time>
      </trkpt>
      <trkpt lat="45.38241" lon="4.73441">
        <ele>261</ele>
        <time>2020-01-31T11:15:16 01:00</time>
      </trkpt>
      <trkpt lat="45.38247" lon="4.73416">
        <ele>261</ele>
        <time>2020-01-31T11:15:21 01:00</time>
      </trkpt>
      <trkpt lat="45.3825" lon="4.73397">
        <ele>260</ele>
        <time>2020-01-31T11:15:26 01:00</time>
      </trkpt>
      <trkpt lat="45.38242" lon="4.73368">
        <ele>263</ele>
        <time>2020-01-31T11:15:31 01:00</time>
      </trkpt>
      <trkpt lat="45.38257" lon="4.73338">
        <ele>255</ele>
        <time>2020-01-31T11:15:36 01:00</time>
      </trkpt>
      <trkpt lat="45.38244" lon="4.7334">
        <ele>262</ele>
        <time>2020-01-31T11:15:41 01:00</time>
      </trkpt>
      <trkpt lat="45.38209" lon="4.7333">
        <ele>275</ele>
        <time>2020-01-31T11:15:46 01:00</time>
      </trkpt>
      <trkpt lat="45.38204" lon="4.73325">
        <ele>276</ele>
        <time>2020-01-31T11:15:51 01:00</time>
      </trkpt>
      <trkpt lat="45.38204" lon="4.7331">
        <ele>276</ele>
        <time>2020-01-31T11:15:56 01:00</time>
      </trkpt>
      <trkpt lat="45.38188" lon="4.73299">
        <ele>282</ele>
        <time>2020-01-31T11:16:01 01:00</time>
      </trkpt>
      <trkpt lat="45.38176" lon="4.733">
        <ele>287</ele>
        <time>2020-01-31T11:16:06 01:00</time>
      </trkpt>
      <trkpt lat="45.38153" lon="4.73324">
        <ele>295</ele>
        <time>2020-01-31T11:16:11 01:00</time>
      </trkpt>
      <trkpt lat="45.3816" lon="4.73387">
        <ele>294</ele>
        <time>2020-01-31T11:16:16 01:00</time>
      </trkpt>
      <trkpt lat="45.38135" lon="4.73412">
        <ele>300</ele>
        <time>2020-01-31T11:16:21 01:00</time>
      </trkpt>
      <trkpt lat="45.38118" lon="4.73422">
        <ele>304</ele>
        <time>2020-01-31T11:16:26 01:00</time>
      </trkpt>
      <trkpt lat="45.38082" lon="4.73429">
        <ele>312</ele>
        <time>2020-01-31T11:16:31 01:00</time>
      </trkpt>
      <trkpt lat="45.38068" lon="4.73448">
        <ele>314</ele>
        <time>2020-01-31T11:16:36 01:00</time>
      </trkpt>
      <trkpt lat="45.38057" lon="4.73482">
        <ele>314</ele>
        <time>1999-09-27T14:18:06 02:00</time>
      </trkpt>
      <trkpt lat="45.38052" lon="4.73501">
        <ele>314</ele>
        <time>2020-01-31T11:16:46 01:00</time>
      </trkpt>
      <trkpt lat="45.38011" lon="4.73532">
        <ele>319</ele>
        <time>2020-01-31T11:16:51 01:00</time>
      </trkpt>
      <trkpt lat="45.38001" lon="4.7354">
        <ele>321</ele>
        <time>2020-01-31T11:16:56 01:00</time>
      </trkpt>
      <trkpt lat="45.3797" lon="4.7354">
        <ele>326</ele>
        <time>2020-01-31T11:17:01 01:00</time>
      </trkpt>
      <trkpt lat="45.3792" lon="4.73572">
        <ele>333</ele>
        <time>2020-01-31T11:17:06 01:00</time>
      </trkpt>
      <trkpt lat="45.37862" lon="4.73599">
        <ele>339</ele>
        <time>1999-09-27T14:18:26 02:00</time>
      </trkpt>
      <trkpt lat="45.37851" lon="4.73615">
        <ele>340</ele>
        <time>2020-01-31T11:17:16 01:00</time>
      </trkpt>
      <trkpt lat="45.37837" lon="4.73655">
        <ele>339</ele>
        <time>2020-01-31T11:17:21 01:00</time>
      </trkpt>
      <trkpt lat="45.37828" lon="4.73672">
        <ele>339</ele>
        <time>2020-01-31T11:17:26 01:00</time>
      </trkpt>
      <trkpt lat="45.37766" lon="4.73737">
        <ele>339</ele>
        <time>2020-01-31T11:17:31 01:00</time>
      </trkpt>
      <trkpt lat="45.3776" lon="4.73753">
        <ele>338</ele>
        <time>2020-01-31T11:17:36 01:00</time>
      </trkpt>
      <trkpt lat="45.37721" lon="4.7377">
        <ele>338</ele>
        <time>1999-09-27T14:18:46 02:00</time>
      </trkpt>
      <trkpt lat="45.37718" lon="4.73755">
        <ele>339</ele>
        <time>2020-01-31T11:17:46 01:00</time>
      </trkpt>
      <trkpt lat="45.3769" lon="4.73693">
        <ele>342</ele>
        <time>2020-01-31T11:17:51 01:00</time>
      </trkpt>
      <trkpt lat="45.3769" lon="4.73656">
        <ele>344</ele>
        <time>2020-01-31T11:17:56 01:00</time>
      </trkpt>
      <trkpt lat="45.37698" lon="4.73636">
        <ele>345</ele>
        <time>2020-01-31T11:18:01 01:00</time>
      </trkpt>
      <trkpt lat="45.37704" lon="4.73606">
        <ele>346</ele>
        <time>2020-01-31T11:18:06 01:00</time>
      </trkpt>
      <trkpt lat="45.37699" lon="4.73588">
        <ele>347</ele>
        <time>1999-09-27T14:19:06 02:00</time>
      </trkpt>
      <trkpt lat="45.37672" lon="4.73572">
        <ele>347</ele>
        <time>2020-01-31T11:18:16 01:00</time>
      </trkpt>
      <trkpt lat="45.37667" lon="4.73545">
        <ele>348</ele>
        <time>2020-01-31T11:18:21 01:00</time>
      </trkpt>
      <trkpt lat="45.37659" lon="4.73494">
        <ele>350</ele>
        <time>2020-01-31T11:18:26 01:00</time>
      </trkpt>
      <trkpt lat="45.37646" lon="4.7347">
        <ele>351</ele>
        <time>2020-01-31T11:18:31 01:00</time>
      </trkpt>
      <trkpt lat="45.37642" lon="4.73454">
        <ele>351</ele>
        <time>2020-01-31T11:18:36 01:00</time>
      </trkpt>
      <trkpt lat="45.37639" lon="4.73435">
        <ele>352</ele>
        <time>1999-09-27T14:19:25 02:00</time>
      </trkpt>
      <trkpt lat="45.37629" lon="4.7339">
        <ele>353</ele>
        <time>2020-01-31T11:18:46 01:00</time>
      </trkpt>
      <trkpt lat="45.37611" lon="4.73339">
        <ele>353</ele>
        <time>2020-01-31T11:18:51 01:00</time>
      </trkpt>
      <trkpt lat="45.37598" lon="4.73313">
        <ele>354</ele>
        <time>1999-09-27T14:20:00 02:00</time>
      </trkpt>
      <trkpt lat="45.37563" lon="4.73258">
        <ele>355</ele>
        <time>2020-01-31T11:19:01 01:00</time>
      </trkpt>
      <trkpt lat="45.37543" lon="4.73216">
        <ele>355</ele>
        <time>1999-09-27T14:20:19 02:00</time>
      </trkpt>
      <trkpt lat="45.37528" lon="4.7317">
        <ele>356</ele>
        <time>2020-01-31T11:19:11 01:00</time>
      </trkpt>
      <trkpt lat="45.37507" lon="4.73136">
        <ele>357</ele>
        <time>2020-01-31T11:19:16 01:00</time>
      </trkpt>
      <trkpt lat="45.37499" lon="4.73083">
        <ele>359</ele>
        <time>2020-01-31T11:19:21 01:00</time>
      </trkpt>
      <trkpt lat="45.3749" lon="4.73014">
        <ele>362</ele>
        <time>2020-01-31T11:19:26 01:00</time>
      </trkpt>
      <trkpt lat="45.37484" lon="4.72999">
        <ele>362</ele>
        <time>1999-09-27T14:20:38 02:00</time>
      </trkpt>
      <trkpt lat="45.37434" lon="4.73012">
        <ele>362</ele>
        <time>2020-01-31T11:19:36 01:00</time>
      </trkpt>
      <trkpt lat="45.3739" lon="4.73019">
        <ele>362</ele>
        <time>1999-09-27T14:23:30 02:00</time>
      </trkpt>
      <trkpt lat="45.37386" lon="4.72998">
        <ele>364</ele>
        <time>1999-09-27T14:23:49 02:00</time>
      </trkpt>
      <trkpt lat="45.37374" lon="4.7297">
        <ele>366</ele>
        <time>1999-09-27T14:24:08 02:00</time>
      </trkpt>
      <trkpt lat="45.37367" lon="4.72939">
        <ele>368</ele>
        <time>1999-09-27T14:24:28 02:00</time>
      </trkpt>
      <trkpt lat="45.37358" lon="4.72908">
        <ele>371</ele>
        <time>1999-09-27T14:24:48 02:00</time>
      </trkpt>
      <trkpt lat="45.37349" lon="4.72899">
        <ele>371</ele>
        <time>2020-01-31T11:20:06 01:00</time>
      </trkpt>
      <trkpt lat="45.37337" lon="4.72886">
        <ele>372</ele>
        <time>2020-01-31T11:20:11 01:00</time>
      </trkpt>
      <trkpt lat="45.3733" lon="4.72874">
        <ele>373</ele>
        <time>1999-09-27T14:25:08 02:00</time>
      </trkpt>
      <trkpt lat="45.37328" lon="4.72865">
        <ele>374</ele>
        <time>2020-01-31T11:20:21 01:00</time>
      </trkpt>
      <trkpt lat="45.37329" lon="4.72852">
        <ele>375</ele>
        <time>1999-09-27T14:25:29 02:00</time>
      </trkpt>
      <trkpt lat="45.37329" lon="4.72828">
        <ele>377</ele>
        <time>1999-09-27T14:25:48 02:00</time>
      </trkpt>
      <trkpt lat="45.37323" lon="4.72796">
        <ele>379</ele>
        <time>1999-09-27T14:26:10 02:00</time>
      </trkpt>
      <trkpt lat="45.37311" lon="4.72754">
        <ele>383</ele>
        <time>1999-09-27T14:26:30 02:00</time>
      </trkpt>
      <trkpt lat="45.37304" lon="4.72726">
        <ele>385</ele>
        <time>1999-09-27T14:26:53 02:00</time>
      </trkpt>
      <trkpt lat="45.37278" lon="4.72628">
        <ele>392</ele>
        <time>1999-09-27T14:27:14 02:00</time>
      </trkpt>
      <trkpt lat="45.37267" lon="4.72605">
        <ele>393</ele>
        <time>1999-09-27T14:27:34 02:00</time>
      </trkpt>
      <trkpt lat="45.37257" lon="4.72573">
        <ele>395</ele>
        <time>1999-09-27T14:27:54 02:00</time>
      </trkpt>
      <trkpt lat="45.37242" lon="4.72527">
        <ele>398</ele>
        <time>1999-09-27T14:28:13 02:00</time>
      </trkpt>
      <trkpt lat="45.37224" lon="4.72478">
        <ele>401</ele>
        <time>1999-09-27T14:28:32 02:00</time>
      </trkpt>
      <trkpt lat="45.37217" lon="4.72458">
        <ele>402</ele>
        <time>1999-09-27T14:28:51 02:00</time>
      </trkpt>
      <trkpt lat="45.37204" lon="4.7243">
        <ele>403</ele>
        <time>1999-09-27T14:29:10 02:00</time>
      </trkpt>
      <trkpt lat="45.37184" lon="4.72386">
        <ele>405</ele>
        <time>1999-09-27T14:29:30 02:00</time>
      </trkpt>
      <trkpt lat="45.37145" lon="4.72315">
        <ele>409</ele>
        <time>1999-09-27T14:29:49 02:00</time>
      </trkpt>
      <trkpt lat="45.37134" lon="4.72262">
        <ele>408</ele>
        <time>1999-09-27T14:30:10 02:00</time>
      </trkpt>
      <trkpt lat="45.37109" lon="4.72216">
        <ele>406</ele>
        <time>1999-09-27T14:36:09 02:00</time>
      </trkpt>
      <trkpt lat="45.37092" lon="4.72199">
        <ele>406</ele>
        <time>1999-09-27T14:36:31 02:00</time>
      </trkpt>
      <trkpt lat="45.37073" lon="4.7218">
        <ele>405</ele>
        <time>1999-09-27T14:36:49 02:00</time>
      </trkpt>
      <trkpt lat="45.37048" lon="4.72161">
        <ele>404</ele>
        <time>1999-09-27T14:37:09 02:00</time>
      </trkpt>
      <trkpt lat="45.37032" lon="4.72155">
        <ele>403</ele>
        <time>1999-09-27T14:37:30 02:00</time>
      </trkpt>
      <trkpt lat="45.37009" lon="4.72151">
        <ele>404</ele>
        <time>1999-09-27T14:37:50 02:00</time>
      </trkpt>
      <trkpt lat="45.36991" lon="4.72149">
        <ele>405</ele>
        <time>1999-09-27T14:38:21 02:00</time>
      </trkpt>
      <trkpt lat="45.36968" lon="4.72131">
        <ele>404</ele>
        <time>1999-09-27T14:38:41 02:00</time>
      </trkpt>
      <trkpt lat="45.36949" lon="4.72113">
        <ele>403</ele>
        <time>1999-09-27T14:39:00 02:00</time>
      </trkpt>
      <trkpt lat="45.36928" lon="4.72093">
        <ele>402</ele>
        <time>1999-09-27T14:39:17 02:00</time>
      </trkpt>
      <trkpt lat="45.36911" lon="4.72068">
        <ele>402</ele>
        <time>1999-09-27T14:39:35 02:00</time>
      </trkpt>
      <trkpt lat="45.36897" lon="4.72043">
        <ele>402</ele>
        <time>1999-09-27T14:39:45 02:00</time>
      </trkpt>
      <trkpt lat="45.36881" lon="4.72017">
        <ele>402</ele>
        <time>1999-09-27T14:40:06 02:00</time>
      </trkpt>
      <trkpt lat="45.36865" lon="4.71995">
        <ele>404</ele>
        <time>1999-09-27T14:40:24 02:00</time>
      </trkpt>
      <trkpt lat="45.36847" lon="4.71974">
        <ele>406</ele>
        <time>1999-09-27T14:40:42 02:00</time>
      </trkpt>
      <trkpt lat="45.3683" lon="4.71953">
        <ele>408</ele>
        <time>1999-09-27T14:41:02 02:00</time>
      </trkpt>
      <trkpt lat="45.36812" lon="4.71931">
        <ele>408</ele>
        <time>1999-09-27T14:41:21 02:00</time>
      </trkpt>
      <trkpt lat="45.36794" lon="4.71912">
        <ele>408</ele>
        <time>1999-09-27T14:41:40 02:00</time>
      </trkpt>
      <trkpt lat="45.36775" lon="4.71893">
        <ele>408</ele>
        <time>1999-09-27T14:41:59 02:00</time>
      </trkpt>
      <trkpt lat="45.36756" lon="4.71875">
        <ele>407</ele>
        <time>1999-09-27T14:42:18 02:00</time>
      </trkpt>
      <trkpt lat="45.36739" lon="4.71851">
        <ele>406</ele>
        <time>1999-09-27T14:42:37 02:00</time>
      </trkpt>
      <trkpt lat="45.36724" lon="4.71828">
        <ele>405</ele>
        <time>1999-09-27T14:42:58 02:00</time>
      </trkpt>
      <trkpt lat="45.36708" lon="4.71805">
        <ele>403</ele>
        <time>1999-09-27T14:44:10 02:00</time>
      </trkpt>
      <trkpt lat="45.36695" lon="4.71783">
        <ele>402</ele>
        <time>1999-09-27T14:44:40 02:00</time>
      </trkpt>
      <trkpt lat="45.36665" lon="4.71732">
        <ele>400.4</ele>
      </trkpt>
      <trkpt lat="45.36646" lon="4.71738">
        <ele>400.1</ele>
      </trkpt>
      <trkpt lat="45.36553" lon="4.71769">
        <ele>395.1</ele>
      </trkpt>
      <trkpt lat="45.36493" lon="4.71783">
        <ele>390.5</ele>
      </trkpt>
      <trkpt lat="45.36476" lon="4.7179">
        <ele>389.7</ele>
      </trkpt>
      <trkpt lat="45.36466" lon="4.71805">
        <ele>389.2</ele>
      </trkpt>
      <trkpt lat="45.36459" lon="4.71825">
        <ele>388.7</ele>
      </trkpt>
      <trkpt lat="45.36442" lon="4.7184">
        <ele>387.9</ele>
      </trkpt>
      <trkpt lat="45.3641" lon="4.71879">
        <ele>384.2</ele>
      </trkpt>
      <trkpt lat="45.36386" lon="4.71914">
        <ele>384</ele>
      </trkpt>
      <trkpt lat="45.36385" lon="4.71915">
        <ele>384</ele>
      </trkpt>
      <trkpt lat="45.36372" lon="4.71934">
        <ele>385</ele>
      </trkpt>
      <trkpt lat="45.3636" lon="4.72045">
        <ele>389.2</ele>
      </trkpt>
      <trkpt lat="45.36317" lon="4.72129">
        <ele>387.4</ele>
      </trkpt>
      <trkpt lat="45.36254" lon="4.72268">
        <ele>391.5</ele>
      </trkpt>
      <trkpt lat="45.36207" lon="4.72389">
        <ele>391.7</ele>
      </trkpt>
      <trkpt lat="45.3618" lon="4.7246">
        <ele>394.4</ele>
      </trkpt>
      <trkpt lat="45.36172" lon="4.72506">
        <ele>393.7</ele>
      </trkpt>
      <trkpt lat="45.36176" lon="4.72549">
        <ele>396.4</ele>
      </trkpt>
      <trkpt lat="45.3618" lon="4.72565">
        <ele>396.3</ele>
      </trkpt>
      <trkpt lat="45.36181" lon="4.72625">
        <ele>395.5</ele>
      </trkpt>
      <trkpt lat="45.36184" lon="4.72679">
        <ele>392</ele>
      </trkpt>
      <trkpt lat="45.36185" lon="4.72704">
        <ele>391.6</ele>
      </trkpt>
      <trkpt lat="45.36185" lon="4.72706">
        <ele>391.6</ele>
      </trkpt>
      <trkpt lat="45.36185" lon="4.72704">
        <ele>391.6</ele>
      </trkpt>
      <trkpt lat="45.36184" lon="4.72679">
        <ele>392</ele>
      </trkpt>
      <trkpt lat="45.36162" lon="4.72679">
        <ele>388.6</ele>
      </trkpt>
      <trkpt lat="45.36139" lon="4.72673">
        <ele>387.1</ele>
      </trkpt>
      <trkpt lat="45.36129" lon="4.72658">
        <ele>389.5</ele>
      </trkpt>
      <trkpt lat="45.36125" lon="4.72641">
        <ele>389.5</ele>
      </trkpt>
      <trkpt lat="45.3611" lon="4.72631">
        <ele>389.2</ele>
      </trkpt>
      <trkpt lat="45.36095" lon="4.72612">
        <ele>389</ele>
      </trkpt>
      <trkpt lat="45.36037" lon="4.72612">
        <ele>384</ele>
      </trkpt>
      <trkpt lat="45.3601" lon="4.72609">
        <ele>383.1</ele>
      </trkpt>
      <trkpt lat="45.35991" lon="4.72583">
        <ele>380</ele>
      </trkpt>
      <trkpt lat="45.35979" lon="4.72559">
        <ele>377.3</ele>
      </trkpt>
      <trkpt lat="45.35967" lon="4.72546">
        <ele>376.2</ele>
      </trkpt>
      <trkpt lat="45.35958" lon="4.72563">
        <ele>375.6</ele>
      </trkpt>
      <trkpt lat="45.35952" lon="4.72568">
        <ele>375</ele>
      </trkpt>
      <trkpt lat="45.35944" lon="4.72565">
        <ele>374.3</ele>
      </trkpt>
      <trkpt lat="45.35922" lon="4.72567">
        <ele>372.5</ele>
      </trkpt>
      <trkpt lat="45.3592" lon="4.72587">
        <ele>370.9</ele>
      </trkpt>
      <trkpt lat="45.35915" lon="4.72601">
        <ele>366.4</ele>
      </trkpt>
      <trkpt lat="45.35894" lon="4.72587">
        <ele>365.3</ele>
      </trkpt>
      <trkpt lat="45.35875" lon="4.72571">
        <ele>364.5</ele>
      </trkpt>
      <trkpt lat="45.35863" lon="4.72564">
        <ele>363.5</ele>
      </trkpt>
      <trkpt lat="45.35861" lon="4.72598">
        <ele>361.7</ele>
      </trkpt>
      <trkpt lat="45.35866" lon="4.72632">
        <ele>361.3</ele>
      </trkpt>
      <trkpt lat="45.35879" lon="4.72697">
        <ele>357.6</ele>
      </trkpt>
      <trkpt lat="45.35907" lon="4.728">
        <ele>352.3</ele>
      </trkpt>
      <trkpt lat="45.35921" lon="4.7283">
        <ele>355.8</ele>
      </trkpt>
      <trkpt lat="45.35929" lon="4.72857">
        <ele>354.8</ele>
      </trkpt>
      <trkpt lat="45.35953" lon="4.72971">
        <ele>349.1</ele>
      </trkpt>
      <trkpt lat="45.35956" lon="4.73014">
        <ele>346.3</ele>
      </trkpt>
      <trkpt lat="45.35961" lon="4.73036">
        <ele>346.2</ele>
      </trkpt>
      <trkpt lat="45.35962" lon="4.73056">
        <ele>346</ele>
      </trkpt>
      <trkpt lat="45.35959" lon="4.73074">
        <ele>345.6</ele>
      </trkpt>
      <trkpt lat="45.35958" lon="4.73078">
        <ele>345.4</ele>
      </trkpt>
      <trkpt lat="45.35957" lon="4.73014">
        <ele>347</ele>
        <time>1999-09-27T16:45:38 02:00</time>
      </trkpt>
      <trkpt lat="45.3596" lon="4.73046">
        <ele>346</ele>
        <time>1999-09-27T16:45:59 02:00</time>
      </trkpt>
      <trkpt lat="45.35963" lon="4.73062">
        <ele>346</ele>
        <time>2020-01-31T11:53:31 01:00</time>
      </trkpt>
      <trkpt lat="45.35959" lon="4.73078">
        <ele>345</ele>
        <time>1999-09-27T16:46:20 02:00</time>
      </trkpt>
      <trkpt lat="45.35952" lon="4.73113">
        <ele>343</ele>
        <time>1999-09-27T16:46:39 02:00</time>
      </trkpt>
      <trkpt lat="45.3595" lon="4.73143">
        <ele>342</ele>
        <time>1999-09-27T16:46:58 02:00</time>
      </trkpt>
      <trkpt lat="45.35951" lon="4.73176">
        <ele>341</ele>
        <time>1999-09-27T16:47:18 02:00</time>
      </trkpt>
      <trkpt lat="45.35951" lon="4.7321">
        <ele>341</ele>
        <time>1999-09-27T16:47:39 02:00</time>
      </trkpt>
      <trkpt lat="45.35941" lon="4.73239">
        <ele>341</ele>
        <time>1999-09-27T16:47:59 02:00</time>
      </trkpt>
      <trkpt lat="45.35937" lon="4.73254">
        <ele>340</ele>
        <time>2020-01-31T11:54:06 01:00</time>
      </trkpt>
      <trkpt lat="45.35937" lon="4.73271">
        <ele>340</ele>
        <time>1999-09-27T16:48:21 02:00</time>
      </trkpt>
      <trkpt lat="45.3594" lon="4.73302">
        <ele>341</ele>
        <time>1999-09-27T16:48:38 02:00</time>
      </trkpt>
      <trkpt lat="45.35944" lon="4.73334">
        <ele>342</ele>
        <time>1999-09-27T16:48:57 02:00</time>
      </trkpt>
      <trkpt lat="45.35949" lon="4.73365">
        <ele>341</ele>
        <time>1999-09-27T16:49:16 02:00</time>
      </trkpt>
      <trkpt lat="45.35955" lon="4.73397">
        <ele>340</ele>
        <time>1999-09-27T16:49:35 02:00</time>
      </trkpt>
      <trkpt lat="45.3596" lon="4.73429">
        <ele>339</ele>
        <time>1999-09-27T16:49:53 02:00</time>
      </trkpt>
      <trkpt lat="45.35969" lon="4.73459">
        <ele>338</ele>
        <time>1999-09-27T16:50:14 02:00</time>
      </trkpt>
      <trkpt lat="45.35969" lon="4.73489">
        <ele>337</ele>
        <time>1999-09-27T16:50:53 02:00</time>
      </trkpt>
      <trkpt lat="45.35961" lon="4.73524">
        <ele>335</ele>
        <time>1999-09-27T16:51:11 02:00</time>
      </trkpt>
      <trkpt lat="45.35963" lon="4.73549">
        <ele>334</ele>
        <time>1999-09-27T16:51:32 02:00</time>
      </trkpt>
      <trkpt lat="45.35994" lon="4.73561">
        <ele>334</ele>
        <time>1999-09-27T16:51:56 02:00</time>
      </trkpt>
      <trkpt lat="45.36016" lon="4.7357">
        <ele>334</ele>
        <time>1999-09-27T16:52:13 02:00</time>
      </trkpt>
      <trkpt lat="45.36037" lon="4.73585">
        <ele>334</ele>
        <time>1999-09-27T16:52:30 02:00</time>
      </trkpt>
      <trkpt lat="45.36054" lon="4.73606">
        <ele>333</ele>
        <time>1999-09-27T16:52:47 02:00</time>
      </trkpt>
      <trkpt lat="45.36071" lon="4.73627">
        <ele>333</ele>
        <time>1999-09-27T16:53:04 02:00</time>
      </trkpt>
      <trkpt lat="45.36091" lon="4.73642">
        <ele>332</ele>
        <time>1999-09-27T16:53:27 02:00</time>
      </trkpt>
      <trkpt lat="45.36128" lon="4.7366">
        <ele>332</ele>
        <time>1999-09-27T16:54:08 02:00</time>
      </trkpt>
      <trkpt lat="45.36156" lon="4.73673">
        <ele>332</ele>
        <time>1999-09-27T16:54:29 02:00</time>
      </trkpt>
      <trkpt lat="45.36176" lon="4.73689">
        <ele>331</ele>
        <time>1999-09-27T16:54:47 02:00</time>
      </trkpt>
      <trkpt lat="45.36197" lon="4.73702">
        <ele>331</ele>
        <time>1999-09-27T16:55:06 02:00</time>
      </trkpt>
      <trkpt lat="45.3622" lon="4.7371">
        <ele>331</ele>
        <time>1999-09-27T16:55:24 02:00</time>
      </trkpt>
      <trkpt lat="45.36243" lon="4.73718">
        <ele>330</ele>
        <time>1999-09-27T16:55:40 02:00</time>
      </trkpt>
      <trkpt lat="45.36267" lon="4.7372">
        <ele>330</ele>
        <time>1999-09-27T16:55:57 02:00</time>
      </trkpt>
      <trkpt lat="45.3629" lon="4.73722">
        <ele>330</ele>
        <time>1999-09-27T16:56:15 02:00</time>
      </trkpt>
      <trkpt lat="45.36314" lon="4.7372">
        <ele>330</ele>
        <time>1999-09-27T16:56:33 02:00</time>
      </trkpt>
      <trkpt lat="45.36332" lon="4.73721">
        <ele>330</ele>
        <time>1999-09-27T16:56:54 02:00</time>
      </trkpt>
      <trkpt lat="45.36335" lon="4.73746">
        <ele>329</ele>
        <time>2020-01-31T11:56:21 01:00</time>
      </trkpt>
      <trkpt lat="45.36335" lon="4.73765">
        <ele>328</ele>
        <time>1999-09-27T16:57:14 02:00</time>
      </trkpt>
      <trkpt lat="45.36336" lon="4.73782">
        <ele>327</ele>
        <time>2020-01-31T11:56:31 01:00</time>
      </trkpt>
      <trkpt lat="45.36341" lon="4.73799">
        <ele>327</ele>
        <time>1999-09-27T16:57:35 02:00</time>
      </trkpt>
      <trkpt lat="45.36351" lon="4.73823">
        <ele>325</ele>
        <time>1999-09-27T16:57:49 02:00</time>
      </trkpt>
      <trkpt lat="45.36353" lon="4.73853">
        <ele>324</ele>
        <time>1999-09-27T16:58:05 02:00</time>
      </trkpt>
      <trkpt lat="45.36351" lon="4.73875">
        <ele>324</ele>
        <time>2020-01-31T11:56:51 01:00</time>
      </trkpt>
      <trkpt lat="45.36347" lon="4.7389">
        <ele>324</ele>
        <time>1999-09-27T16:58:22 02:00</time>
      </trkpt>
      <trkpt lat="45.36342" lon="4.73912">
        <ele>323</ele>
        <time>2020-01-31T11:57:01 01:00</time>
      </trkpt>
      <trkpt lat="45.36356" lon="4.7392">
        <ele>323</ele>
        <time>1999-09-27T16:58:45 02:00</time>
      </trkpt>
      <trkpt lat="45.3638" lon="4.73928">
        <ele>323</ele>
        <time>1999-09-27T16:59:02 02:00</time>
      </trkpt>
      <trkpt lat="45.36403" lon="4.73935">
        <ele>324</ele>
        <time>1999-09-27T16:59:19 02:00</time>
      </trkpt>
      <trkpt lat="45.36426" lon="4.73939">
        <ele>325</ele>
        <time>1999-09-27T16:59:38 02:00</time>
      </trkpt>
      <trkpt lat="45.3645" lon="4.73942">
        <ele>326</ele>
        <time>1999-09-27T16:59:59 02:00</time>
      </trkpt>
      <trkpt lat="45.36472" lon="4.73947">
        <ele>328</ele>
        <time>1999-09-27T17:00:19 02:00</time>
      </trkpt>
      <trkpt lat="45.36496" lon="4.7395">
        <ele>329</ele>
        <time>1999-09-27T17:00:36 02:00</time>
      </trkpt>
      <trkpt lat="45.36517" lon="4.73958">
        <ele>330</ele>
        <time>1999-09-27T17:00:56 02:00</time>
      </trkpt>
      <trkpt lat="45.36537" lon="4.73969">
        <ele>331</ele>
        <time>1999-09-27T17:01:14 02:00</time>
      </trkpt>
      <trkpt lat="45.36551" lon="4.73975">
        <ele>331</ele>
        <time>2020-01-31T11:57:51 01:00</time>
      </trkpt>
      <trkpt lat="45.36563" lon="4.73969">
        <ele>331</ele>
        <time>1999-09-27T17:01:29 02:00</time>
      </trkpt>
      <trkpt lat="45.36579" lon="4.73945">
        <ele>332</ele>
        <time>1999-09-27T17:01:46 02:00</time>
      </trkpt>
      <trkpt lat="45.36592" lon="4.73917">
        <ele>332</ele>
        <time>1999-09-27T17:02:05 02:00</time>
      </trkpt>
      <trkpt lat="45.36604" lon="4.73916">
        <ele>333</ele>
        <time>2020-01-31T11:58:11 01:00</time>
      </trkpt>
      <trkpt lat="45.36615" lon="4.73919">
        <ele>333</ele>
        <time>1999-09-27T17:02:21 02:00</time>
      </trkpt>
      <trkpt lat="45.36624" lon="4.7391">
        <ele>333</ele>
        <time>2020-01-31T11:58:21 01:00</time>
      </trkpt>
      <trkpt lat="45.36637" lon="4.73909">
        <ele>334</ele>
        <time>1999-09-27T17:02:38 02:00</time>
      </trkpt>
      <trkpt lat="45.3666" lon="4.73904">
        <ele>335</ele>
        <time>1999-09-27T17:02:58 02:00</time>
      </trkpt>
      <trkpt lat="45.36672" lon="4.73905">
        <ele>335</ele>
        <time>2020-01-31T11:58:36 01:00</time>
      </trkpt>
      <trkpt lat="45.36684" lon="4.73903">
        <ele>335</ele>
        <time>1999-09-27T17:03:17 02:00</time>
      </trkpt>
      <trkpt lat="45.36706" lon="4.73898">
        <ele>335</ele>
        <time>1999-09-27T17:03:31 02:00</time>
      </trkpt>
      <trkpt lat="45.36729" lon="4.73893">
        <ele>335</ele>
        <time>1999-09-27T17:03:41 02:00</time>
      </trkpt>
      <trkpt lat="45.36752" lon="4.73884">
        <ele>335</ele>
        <time>1999-09-27T17:03:53 02:00</time>
      </trkpt>
      <trkpt lat="45.36774" lon="4.73874">
        <ele>336</ele>
        <time>1999-09-27T17:04:07 02:00</time>
      </trkpt>
      <trkpt lat="45.36797" lon="4.73867">
        <ele>336</ele>
        <time>1999-09-27T17:04:21 02:00</time>
      </trkpt>
      <trkpt lat="45.36821" lon="4.73861">
        <ele>336</ele>
        <time>1999-09-27T17:04:37 02:00</time>
      </trkpt>
      <trkpt lat="45.36844" lon="4.73854">
        <ele>336</ele>
        <time>1999-09-27T17:04:54 02:00</time>
      </trkpt>
      <trkpt lat="45.36866" lon="4.73847">
        <ele>336</ele>
        <time>1999-09-27T17:05:09 02:00</time>
      </trkpt>
      <trkpt lat="45.36889" lon="4.7384">
        <ele>336</ele>
        <time>1999-09-27T17:05:25 02:00</time>
      </trkpt>
      <trkpt lat="45.36912" lon="4.73839">
        <ele>336</ele>
        <time>1999-09-27T17:05:42 02:00</time>
      </trkpt>
      <trkpt lat="45.36935" lon="4.7384">
        <ele>336</ele>
        <time>1999-09-27T17:05:57 02:00</time>
      </trkpt>
      <trkpt lat="45.3696" lon="4.73841">
        <ele>336</ele>
        <time>1999-09-27T17:06:11 02:00</time>
      </trkpt>
      <trkpt lat="45.36984" lon="4.73838">
        <ele>337</ele>
        <time>1999-09-27T17:06:25 02:00</time>
      </trkpt>
      <trkpt lat="45.37008" lon="4.73836">
        <ele>337</ele>
        <time>1999-09-27T17:06:43 02:00</time>
      </trkpt>
      <trkpt lat="45.37031" lon="4.73833">
        <ele>337</ele>
        <time>1999-09-27T17:07:00 02:00</time>
      </trkpt>
      <trkpt lat="45.37054" lon="4.73832">
        <ele>337</ele>
        <time>1999-09-27T17:07:13 02:00</time>
      </trkpt>
      <trkpt lat="45.37078" lon="4.73833">
        <ele>337</ele>
        <time>1999-09-27T17:07:25 02:00</time>
      </trkpt>
      <trkpt lat="45.37102" lon="4.73833">
        <ele>336</ele>
        <time>1999-09-27T17:07:37 02:00</time>
      </trkpt>
      <trkpt lat="45.37125" lon="4.73834">
        <ele>334</ele>
        <time>1999-09-27T17:07:55 02:00</time>
      </trkpt>
      <trkpt lat="45.37149" lon="4.7383">
        <ele>333</ele>
        <time>1999-09-27T17:08:12 02:00</time>
      </trkpt>
      <trkpt lat="45.37172" lon="4.73824">
        <ele>332</ele>
        <time>1999-09-27T17:08:26 02:00</time>
      </trkpt>
      <trkpt lat="45.37195" lon="4.73815">
        <ele>331</ele>
        <time>1999-09-27T17:08:42 02:00</time>
      </trkpt>
      <trkpt lat="45.37216" lon="4.738">
        <ele>329</ele>
        <time>1999-09-27T17:08:56 02:00</time>
      </trkpt>
      <trkpt lat="45.37234" lon="4.73775">
        <ele>329</ele>
        <time>1999-09-27T17:09:09 02:00</time>
      </trkpt>
      <trkpt lat="45.37247" lon="4.73747">
        <ele>329</ele>
        <time>1999-09-27T17:09:27 02:00</time>
      </trkpt>
      <trkpt lat="45.37265" lon="4.73726">
        <ele>330</ele>
        <time>1999-09-27T17:09:44 02:00</time>
      </trkpt>
      <trkpt lat="45.37286" lon="4.73713">
        <ele>330</ele>
        <time>1999-09-27T17:10:02 02:00</time>
      </trkpt>
      <trkpt lat="45.37299" lon="4.737">
        <ele>330</ele>
        <time>2020-01-31T12:01:01 01:00</time>
      </trkpt>
      <trkpt lat="45.37309" lon="4.73708">
        <ele>330</ele>
        <time>1999-09-27T17:10:20 02:00</time>
      </trkpt>
      <trkpt lat="45.37328" lon="4.73727">
        <ele>329</ele>
        <time>1999-09-27T17:10:39 02:00</time>
      </trkpt>
      <trkpt lat="45.37339" lon="4.73754">
        <ele>328</ele>
        <time>1999-09-27T17:10:58 02:00</time>
      </trkpt>
      <trkpt lat="45.37342" lon="4.7377">
        <ele>327</ele>
        <time>2020-01-31T12:01:21 01:00</time>
      </trkpt>
      <trkpt lat="45.37352" lon="4.73782">
        <ele>327</ele>
        <time>1999-09-27T17:11:16 02:00</time>
      </trkpt>
      <trkpt lat="45.37355" lon="4.73797">
        <ele>326</ele>
        <time>2020-01-31T12:01:31 01:00</time>
      </trkpt>
      <trkpt lat="45.37362" lon="4.7381">
        <ele>326</ele>
        <time>1999-09-27T17:11:36 02:00</time>
      </trkpt>
      <trkpt lat="45.37386" lon="4.73825">
        <ele>328</ele>
        <time>1999-09-27T17:11:55 02:00</time>
      </trkpt>
      <trkpt lat="45.37408" lon="4.73835">
        <ele>330</ele>
        <time>1999-09-27T17:12:12 02:00</time>
      </trkpt>
      <trkpt lat="45.37432" lon="4.73844">
        <ele>331</ele>
        <time>1999-09-27T17:12:30 02:00</time>
      </trkpt>
      <trkpt lat="45.37463" lon="4.73858">
        <ele>331</ele>
        <time>1999-09-27T17:12:53 02:00</time>
      </trkpt>
      <trkpt lat="45.37472" lon="4.73864">
        <ele>330</ele>
        <time>2020-01-31T12:02:01 01:00</time>
      </trkpt>
      <trkpt lat="45.37487" lon="4.73956">
        <ele>325</ele>
        <time>2020-01-31T12:02:06 01:00</time>
      </trkpt>
      <trkpt lat="45.37524" lon="4.73956">
        <ele>325</ele>
        <time>2020-01-31T12:02:11 01:00</time>
      </trkpt>
      <trkpt lat="45.37577" lon="4.73952">
        <ele>326</ele>
        <time>2020-01-31T12:02:16 01:00</time>
      </trkpt>
      <trkpt lat="45.3764" lon="4.73939">
        <ele>327</ele>
        <time>2020-01-31T12:02:21 01:00</time>
      </trkpt>
      <trkpt lat="45.37658" lon="4.73969">
        <ele>324</ele>
        <time>2020-01-31T12:02:26 01:00</time>
      </trkpt>
      <trkpt lat="45.3768" lon="4.7398">
        <ele>322</ele>
        <time>2020-01-31T12:02:31 01:00</time>
      </trkpt>
      <trkpt lat="45.37736" lon="4.73996">
        <ele>318</ele>
        <time>2020-01-31T12:02:36 01:00</time>
      </trkpt>
      <trkpt lat="45.37752" lon="4.74009">
        <ele>315</ele>
        <time>2020-01-31T12:02:41 01:00</time>
      </trkpt>
      <trkpt lat="45.37766" lon="4.74003">
        <ele>314</ele>
        <time>2020-01-31T12:02:46 01:00</time>
      </trkpt>
      <trkpt lat="45.37779" lon="4.73997">
        <ele>314</ele>
        <time>2020-01-31T12:02:51 01:00</time>
      </trkpt>
      <trkpt lat="45.37797" lon="4.73993">
        <ele>312</ele>
        <time>2020-01-31T12:02:56 01:00</time>
      </trkpt>
      <trkpt lat="45.3783" lon="4.73984">
        <ele>309</ele>
        <time>2020-01-31T12:03:01 01:00</time>
      </trkpt>
      <trkpt lat="45.37849" lon="4.73978">
        <ele>307</ele>
        <time>2020-01-31T12:03:06 01:00</time>
      </trkpt>
      <trkpt lat="45.37877" lon="4.73971">
        <ele>304</ele>
        <time>2020-01-31T12:03:11 01:00</time>
      </trkpt>
      <trkpt lat="45.37929" lon="4.73971">
        <ele>295</ele>
        <time>2020-01-31T12:03:16 01:00</time>
      </trkpt>
      <trkpt lat="45.37958" lon="4.73962">
        <ele>289</ele>
        <time>2020-01-31T12:03:21 01:00</time>
      </trkpt>
      <trkpt lat="45.37991" lon="4.73935">
        <ele>285</ele>
        <time>2020-01-31T12:03:26 01:00</time>
      </trkpt>
      <trkpt lat="45.38014" lon="4.73907">
        <ele>283</ele>
        <time>2020-01-31T12:03:31 01:00</time>
      </trkpt>
      <trkpt lat="45.38036" lon="4.73884">
        <ele>278</ele>
        <time>2020-01-31T12:03:36 01:00</time>
      </trkpt>
      <trkpt lat="45.38059" lon="4.73875">
        <ele>272</ele>
        <time>2020-01-31T12:03:41 01:00</time>
      </trkpt>
      <trkpt lat="45.38081" lon="4.73859">
        <ele>266</ele>
        <time>2020-01-31T12:03:46 01:00</time>
      </trkpt>
      <trkpt lat="45.38117" lon="4.7383">
        <ele>261</ele>
        <time>2020-01-31T12:03:51 01:00</time>
      </trkpt>
      <trkpt lat="45.38136" lon="4.73824">
        <ele>256</ele>
        <time>2020-01-31T12:03:56 01:00</time>
      </trkpt>
      <trkpt lat="45.38152" lon="4.73827">
        <ele>251</ele>
        <time>2020-01-31T12:04:01 01:00</time>
      </trkpt>
      <trkpt lat="45.38158" lon="4.73837">
        <ele>248</ele>
        <time>2020-01-31T12:04:06 01:00</time>
      </trkpt>
      <trkpt lat="45.38162" lon="4.73853">
        <ele>245</ele>
        <time>2020-01-31T12:04:11 01:00</time>
      </trkpt>
      <trkpt lat="45.38166" lon="4.73897">
        <ele>240</ele>
        <time>2020-01-31T12:04:16 01:00</time>
      </trkpt>
      <trkpt lat="45.38178" lon="4.7391">
        <ele>237</ele>
        <time>2020-01-31T12:04:21 01:00</time>
      </trkpt>
      <trkpt lat="45.38202" lon="4.73929">
        <ele>233</ele>
        <time>2020-01-31T12:04:26 01:00</time>
      </trkpt>
      <trkpt lat="45.38214" lon="4.73933">
        <ele>232</ele>
        <time>2020-01-31T12:04:31 01:00</time>
      </trkpt>
      <trkpt lat="45.38225" lon="4.73935">
        <ele>230</ele>
        <time>2020-01-31T12:04:36 01:00</time>
      </trkpt>
      <trkpt lat="45.38242" lon="4.73947">
        <ele>229</ele>
        <time>2020-01-31T12:04:41 01:00</time>
      </trkpt>
      <trkpt lat="45.38261" lon="4.73974">
        <ele>229</ele>
        <time>2020-01-31T12:04:46 01:00</time>
      </trkpt>
      <trkpt lat="45.38282" lon="4.74029">
        <ele>227</ele>
        <time>2020-01-31T12:04:51 01:00</time>
      </trkpt>
      <trkpt lat="45.38299" lon="4.74057">
        <ele>223</ele>
        <time>2020-01-31T12:04:56 01:00</time>
      </trkpt>
      <trkpt lat="45.38315" lon="4.74067">
        <ele>221</ele>
        <time>2020-01-31T12:05:01 01:00</time>
      </trkpt>
      <trkpt lat="45.38326" lon="4.7407">
        <ele>221</ele>
        <time>2020-01-31T12:05:06 01:00</time>
      </trkpt>
      <trkpt lat="45.38343" lon="4.7408">
        <ele>217</ele>
        <time>2020-01-31T12:05:11 01:00</time>
      </trkpt>
      <trkpt lat="45.38354" lon="4.74104">
        <ele>214</ele>
        <time>2020-01-31T12:05:16 01:00</time>
      </trkpt>
      <trkpt lat="45.3836" lon="4.7412">
        <ele>212</ele>
        <time>2020-01-31T12:05:21 01:00</time>
      </trkpt>
      <trkpt lat="45.38365" lon="4.7414">
        <ele>211</ele>
        <time>2020-01-31T12:05:26 01:00</time>
      </trkpt>
      <trkpt lat="45.38372" lon="4.74177">
        <ele>210</ele>
        <time>2020-01-31T12:05:31 01:00</time>
      </trkpt>
      <trkpt lat="45.38375" lon="4.7421">
        <ele>211</ele>
        <time>2020-01-31T12:05:36 01:00</time>
      </trkpt>
      <trkpt lat="45.38378" lon="4.74232">
        <ele>212</ele>
        <time>2020-01-31T12:05:41 01:00</time>
      </trkpt>
      <trkpt lat="45.38378" lon="4.74256">
        <ele>214</ele>
        <time>2020-01-31T12:05:46 01:00</time>
      </trkpt>
      <trkpt lat="45.3838" lon="4.74296">
        <ele>217</ele>
        <time>2020-01-31T12:05:51 01:00</time>
      </trkpt>
      <trkpt lat="45.38379" lon="4.74335">
        <ele>219</ele>
        <time>2020-01-31T12:05:56 01:00</time>
      </trkpt>
      <trkpt lat="45.38379" lon="4.7437">
        <ele>217</ele>
        <time>2020-01-31T12:06:01 01:00</time>
      </trkpt>
      <trkpt lat="45.38382" lon="4.74411">
        <ele>214</ele>
        <time>2020-01-31T12:06:06 01:00</time>
      </trkpt>
      <trkpt lat="45.38379" lon="4.7442">
        <ele>213</ele>
        <time>2020-01-31T12:06:11 01:00</time>
      </trkpt>
      <trkpt lat="45.38375" lon="4.74427">
        <ele>212</ele>
        <time>2020-01-31T12:06:16 01:00</time>
      </trkpt>
      <trkpt lat="45.38356" lon="4.74443">
        <ele>210</ele>
        <time>2020-01-31T12:06:21 01:00</time>
      </trkpt>
      <trkpt lat="45.38321" lon="4.74473">
        <ele>204</ele>
        <time>2020-01-31T12:06:26 01:00</time>
      </trkpt>
      <trkpt lat="45.383" lon="4.74491">
        <ele>200</ele>
        <time>2020-01-31T12:06:31 01:00</time>
      </trkpt>
      <trkpt lat="45.38292" lon="4.74506">
        <ele>198</ele>
        <time>2020-01-31T12:06:36 01:00</time>
      </trkpt>
      <trkpt lat="45.38293" lon="4.74532">
        <ele>195</ele>
        <time>2020-01-31T12:06:41 01:00</time>
      </trkpt>
      <trkpt lat="45.38298" lon="4.74568">
        <ele>192</ele>
        <time>2020-01-31T12:06:46 01:00</time>
      </trkpt>
      <trkpt lat="45.38296" lon="4.74583">
        <ele>190</ele>
        <time>2020-01-31T12:06:51 01:00</time>
      </trkpt>
      <trkpt lat="45.38291" lon="4.74603">
        <ele>188</ele>
        <time>2020-01-31T12:06:56 01:00</time>
      </trkpt>
      <trkpt lat="45.38302" lon="4.74616">
        <ele>187</ele>
        <time>2020-01-31T12:07:01 01:00</time>
      </trkpt>
      <trkpt lat="45.3834" lon="4.74646">
        <ele>181</ele>
        <time>2020-01-31T12:07:06 01:00</time>
      </trkpt>
      <trkpt lat="45.38345" lon="4.74649">
        <ele>181.6</ele>
      </trkpt>
      <trkpt lat="45.38353" lon="4.74647">
        <ele>182.2</ele>
      </trkpt>
      <trkpt lat="45.3836" lon="4.74651">
        <ele>182.1</ele>
      </trkpt>
      <trkpt lat="45.3837" lon="4.74663">
        <ele>181.6</ele>
      </trkpt>
      <trkpt lat="45.38379" lon="4.74673">
        <ele>174.8</ele>
      </trkpt>
      <trkpt lat="45.38388" lon="4.74688">
        <ele>174.3</ele>
      </trkpt>
      <trkpt lat="45.38422" lon="4.74728">
        <ele>167.7</ele>
      </trkpt>
      <trkpt lat="45.3843" lon="4.74733">
        <ele>167.3</ele>
      </trkpt>
      <trkpt lat="45.38437" lon="4.74735">
        <ele>166.9</ele>
      </trkpt>
      <trkpt lat="45.38467" lon="4.74736">
        <ele>164.5</ele>
      </trkpt>
      <trkpt lat="45.38477" lon="4.74741">
        <ele>162.8</ele>
      </trkpt>
      <trkpt lat="45.38474" lon="4.74746">
        <ele>163</ele>
      </trkpt>
      <trkpt lat="45.38473" lon="4.7475">
        <ele>163.1</ele>
      </trkpt>
      <trkpt lat="45.38481" lon="4.74759">
        <ele>158.6</ele>
      </trkpt>
      <trkpt lat="45.38491" lon="4.74767">
        <ele>158.1</ele>
      </trkpt>
      <trkpt lat="45.38497" lon="4.7477">
        <ele>158</ele>
      </trkpt>
      <trkpt lat="45.385" lon="4.74768">
        <ele>157.8</ele>
      </trkpt>
      <trkpt lat="45.38506" lon="4.74762">
        <ele>153.6</ele>
      </trkpt>
      <trkpt lat="45.38504" lon="4.74757">
        <ele>154.4</ele>
      </trkpt>
      <trkpt lat="45.38504" lon="4.74742">
        <ele>156.3</ele>
      </trkpt>
      <trkpt lat="45.38504" lon="4.74735">
        <ele>156.6</ele>
      </trkpt>
      <trkpt lat="45.38498" lon="4.74741">
        <ele>159.3</ele>
      </trkpt>
      <trkpt lat="45.38504" lon="4.74735">
        <ele>156.6</ele>
      </trkpt>
      <trkpt lat="45.38504" lon="4.74742">
        <ele>156.3</ele>
      </trkpt>
      <trkpt lat="45.38504" lon="4.74757">
        <ele>154.4</ele>
      </trkpt>
      <trkpt lat="45.38506" lon="4.74762">
        <ele>153.6</ele>
      </trkpt>
      <trkpt lat="45.385" lon="4.74768">
        <ele>157.8</ele>
      </trkpt>
      <trkpt lat="45.38497" lon="4.7477">
        <ele>158</ele>
      </trkpt>
      <trkpt lat="45.38491" lon="4.74767">
        <ele>158.1</ele>
      </trkpt>
      <trkpt lat="45.38481" lon="4.74759">
        <ele>158.6</ele>
      </trkpt>
      <trkpt lat="45.38473" lon="4.7475">
        <ele>163.1</ele>
      </trkpt>
      <trkpt lat="45.38474" lon="4.74746">
        <ele>163</ele>
      </trkpt>
      <trkpt lat="45.38477" lon="4.74741">
        <ele>162.8</ele>
      </trkpt>
      <trkpt lat="45.38467" lon="4.74736">
        <ele>164.5</ele>
      </trkpt>
      <trkpt lat="45.38437" lon="4.74735">
        <ele>166.9</ele>
      </trkpt>
      <trkpt lat="45.3843" lon="4.74733">
        <ele>167.3</ele>
      </trkpt>
      <trkpt lat="45.38422" lon="4.74728">
        <ele>167.7</ele>
      </trkpt>
      <trkpt lat="45.38388" lon="4.74688">
        <ele>174.3</ele>
      </trkpt>
      <trkpt lat="45.38379" lon="4.74673">
        <ele>174.8</ele>
      </trkpt>
      <trkpt lat="45.3837" lon="4.74663">
        <ele>181.6</ele>
      </trkpt>
      <trkpt lat="45.3836" lon="4.74651">
        <ele>182.1</ele>
      </trkpt>
      <trkpt lat="45.38353" lon="4.74647">
        <ele>182.2</ele>
      </trkpt>
      <trkpt lat="45.38348" lon="4.74648">
        <ele>181.9</ele>
      </trkpt>
    </trkseg>
  </trk>
</gpx>